createdAt,value
2018-03-01T00:00:05.219Z,10.80
2018-03-01T00:02:36.860Z,10.38
2018-03-01T00:05:08.103Z,10.27
2018-03-01T00:07:39.463Z,9.57
2018-03-01T00:10:10.717Z,8.95
2018-03-01T00:12:42.241Z,10.60
2018-03-01T00:15:13.619Z,9.52
2018-03-01T00:17:44.861Z,9.13
2018-03-01T00:20:16.127Z,9.38
2018-03-01T00:22:47.349Z,10.23
2018-03-01T00:25:18.877Z,10.23
2018-03-01T00:27:50.094Z,10.10
2018-03-01T00:30:21.361Z,11.18
2018-03-01T00:32:52.612Z,10.75
2018-03-01T00:35:23.851Z,10.68
2018-03-01T00:37:55.196Z,9.15
2018-03-01T00:40:26.411Z,10.40
2018-03-01T00:42:57.705Z,9.32
2018-03-01T00:45:29.138Z,10.13
2018-03-01T00:48:00.523Z,10.10
2018-03-01T00:50:32.493Z,10.02
2018-03-01T00:53:03.734Z,10.60
2018-03-01T00:55:35.733Z,8.65
2018-03-01T00:58:07.094Z,10.20
2018-03-01T01:00:38.306Z,9.98
2018-03-01T01:03:09.781Z,10.02
2018-03-01T01:05:40.981Z,10.02
2018-03-01T01:08:12.987Z,9.10
2018-03-01T01:10:44.190Z,9.40
2018-03-01T01:13:15.431Z,9.48
2018-03-01T01:15:46.760Z,10.32
2018-03-01T01:18:18.009Z,10.02
2018-03-01T01:20:49.216Z,9.38
2018-03-01T01:23:20.511Z,9.32
2018-03-01T01:25:51.733Z,8.75
2018-03-01T01:28:22.995Z,8.57
2018-03-01T01:30:54.216Z,8.98
2018-03-01T01:33:25.490Z,9.00
2018-03-01T01:35:56.834Z,9.77
2018-03-01T01:38:28.166Z,8.32
2018-03-01T01:41:00.200Z,10.15
2018-03-01T01:43:31.470Z,10.48
2018-03-01T01:46:02.695Z,8.95
2018-03-01T01:48:33.940Z,9.48
2018-03-01T01:51:05.188Z,9.40
2018-03-01T01:53:36.468Z,9.65
2018-03-01T01:56:07.776Z,9.48
2018-03-01T01:58:38.999Z,9.25
2018-03-01T02:01:10.187Z,9.75
2018-03-01T02:03:41.700Z,10.05
2018-03-01T02:06:12.906Z,9.50
2018-03-01T02:08:45.234Z,9.68
2018-03-01T02:11:16.458Z,9.73
2018-03-01T02:13:47.731Z,9.90
2018-03-01T02:16:19.032Z,9.40
2018-03-01T02:18:50.282Z,8.60
2018-03-01T02:21:21.520Z,10.10
2018-03-01T02:23:53.100Z,8.80
2018-03-01T02:26:24.311Z,9.32
2018-03-01T02:28:55.706Z,9.48
2018-03-01T02:31:26.928Z,9.63
2018-03-01T02:33:58.433Z,9.57
2018-03-01T02:36:32.421Z,8.40
2018-03-01T02:39:04.424Z,8.48
2018-03-01T02:41:35.620Z,9.05
2018-03-01T02:44:07.250Z,8.77
2018-03-01T02:46:38.456Z,9.57
2018-03-01T02:49:09.719Z,8.32
2018-03-01T02:51:41.302Z,9.90
2018-03-01T02:54:12.536Z,9.55
2018-03-01T02:56:43.903Z,9.05
2018-03-01T02:59:15.113Z,8.82
2018-03-01T03:01:46.370Z,9.05
2018-03-01T03:04:17.594Z,9.45
2018-03-01T03:06:48.879Z,8.57
2018-03-01T03:09:20.107Z,9.98
2018-03-01T03:11:51.304Z,8.85
2018-03-01T03:14:22.562Z,8.77
2018-03-01T03:16:53.817Z,8.40
2018-03-01T03:19:25.349Z,8.55
2018-03-01T03:21:56.556Z,9.05
2018-03-01T03:24:27.842Z,9.48
2018-03-01T03:26:59.044Z,8.82
2018-03-01T03:29:30.306Z,10.55
2018-03-01T03:32:02.319Z,9.13
2018-03-01T03:34:33.559Z,8.85
2018-03-01T03:37:04.815Z,9.20
2018-03-01T03:39:36.065Z,9.50
2018-03-01T03:42:07.288Z,9.52
2018-03-01T03:44:38.531Z,9.52
2018-03-01T03:47:09.817Z,8.50
2018-03-01T03:49:41.077Z,8.77
2018-03-01T03:52:12.280Z,8.82
2018-03-01T03:54:43.560Z,9.10
2018-03-01T03:57:14.871Z,10.07
2018-03-01T03:59:46.150Z,8.57
2018-03-01T04:02:25.000Z,9.18
2018-03-01T04:04:56.224Z,9.57
2018-03-01T04:07:27.481Z,9.00
2018-03-01T04:09:59.448Z,9.45
2018-03-01T04:12:30.690Z,9.35
2018-03-01T04:15:02.832Z,8.63
2018-03-01T04:17:34.132Z,9.52
2018-03-01T04:20:05.465Z,8.85
2018-03-01T04:22:36.676Z,9.35
2018-03-01T04:25:07.901Z,9.27
2018-03-01T04:27:39.128Z,9.60
2018-03-01T04:30:10.382Z,10.40
2018-03-01T04:32:41.612Z,9.90
2018-03-01T04:35:13.633Z,9.85
2018-03-01T04:37:45.649Z,9.98
2018-03-01T04:40:16.894Z,10.10
2018-03-01T04:42:48.099Z,9.18
2018-03-01T04:45:19.285Z,9.98
2018-03-01T04:47:50.512Z,10.52
2018-03-01T04:50:21.704Z,9.82
2018-03-01T04:52:52.972Z,9.40
2018-03-01T04:55:24.149Z,10.43
2018-03-01T04:57:55.674Z,9.57
2018-03-01T05:00:26.857Z,9.00
2018-03-01T05:02:58.087Z,10.48
2018-03-01T05:05:29.291Z,11.15
2018-03-01T05:08:00.493Z,10.18
2018-03-01T05:10:31.711Z,11.10
2018-03-01T05:13:02.918Z,9.93
2018-03-01T05:15:34.599Z,11.25
2018-03-01T05:18:06.036Z,11.77
2018-03-01T05:20:37.249Z,11.70
2018-03-01T05:23:08.632Z,11.07
2018-03-01T05:25:39.807Z,9.80
2018-03-01T05:28:11.001Z,10.68
2018-03-01T05:30:42.187Z,10.43
2018-03-01T05:33:13.371Z,9.82
2018-03-01T05:35:45.320Z,9.85
2018-03-01T05:38:17.625Z,11.75
2018-03-01T05:40:49.537Z,10.25
2018-03-01T05:43:21.008Z,11.12
2018-03-01T05:45:52.951Z,10.70
2018-03-01T05:48:24.170Z,12.57
2018-03-01T05:50:56.432Z,11.25
2018-03-01T05:53:27.630Z,11.20
2018-03-01T05:55:58.891Z,11.48
2018-03-01T05:58:31.673Z,11.63
2018-03-01T06:01:02.943Z,11.68
2018-03-01T06:03:34.527Z,12.85
2018-03-01T06:06:05.881Z,12.73
2018-03-01T06:08:37.099Z,11.48
2018-03-01T06:11:08.282Z,12.10
2018-03-01T06:13:40.275Z,13.10
2018-03-01T06:16:11.700Z,10.90
2018-03-01T06:18:44.792Z,12.18
2018-03-01T06:21:16.009Z,12.23
2018-03-01T06:23:48.756Z,12.27
2018-03-01T06:26:19.955Z,13.73
2018-03-01T06:28:51.198Z,13.32
2018-03-01T06:31:22.429Z,12.80
2018-03-01T06:33:53.930Z,12.23
2018-03-01T06:36:25.160Z,14.00
2018-03-01T06:38:56.595Z,12.35
2018-03-01T06:41:27.798Z,12.37
2018-03-01T06:43:59.297Z,12.77
2018-03-01T06:46:30.496Z,13.23
2018-03-01T06:49:01.833Z,10.88
2018-03-01T06:51:33.079Z,12.25
2018-03-01T06:54:05.068Z,12.57
2018-03-01T06:56:37.012Z,13.07
2018-03-01T06:59:08.316Z,12.55
2018-03-01T07:01:39.495Z,14.38
2018-03-01T07:04:10.718Z,12.85
2018-03-01T07:06:41.952Z,13.50
2018-03-01T07:09:13.184Z,14.60
2018-03-01T07:11:44.419Z,14.52
2018-03-01T07:14:15.666Z,13.13
2018-03-01T07:16:46.903Z,13.88
2018-03-01T07:19:18.241Z,13.82
2018-03-01T07:21:49.818Z,15.68
2018-03-01T07:24:21.042Z,16.10
2018-03-01T07:26:52.385Z,15.55
2018-03-01T07:29:24.321Z,13.77
2018-03-01T07:31:55.569Z,15.68
2018-03-01T07:34:26.878Z,14.95
2018-03-01T07:36:58.168Z,15.18
2018-03-01T07:39:29.495Z,14.85
2018-03-01T07:42:00.752Z,14.52
2018-03-01T07:44:31.935Z,14.77
2018-03-01T07:47:03.236Z,14.27
2018-03-01T07:49:35.187Z,14.38
2018-03-01T07:52:06.426Z,14.38
2018-03-01T07:54:37.616Z,13.70
2018-03-01T07:57:08.912Z,14.98
2018-03-01T07:59:40.907Z,14.07
2018-03-01T08:02:12.946Z,13.90
2018-03-01T08:04:44.244Z,12.93
2018-03-01T08:07:15.488Z,14.87
2018-03-01T08:09:46.936Z,14.65
2018-03-01T08:12:19.026Z,15.27
2018-03-01T08:14:50.991Z,14.30
2018-03-01T08:17:22.228Z,14.07
2018-03-01T08:19:53.526Z,12.77
2018-03-01T08:22:24.771Z,15.38
2018-03-01T08:24:56.743Z,13.45
2018-03-01T08:27:28.861Z,13.57
2018-03-01T08:30:00.504Z,13.65
2018-03-01T08:32:31.703Z,13.10
2018-03-01T08:35:03.716Z,13.60
2018-03-01T08:37:34.956Z,12.98
2018-03-01T08:40:06.323Z,13.88
2018-03-01T08:42:37.584Z,12.27
2018-03-01T08:45:09.596Z,12.00
2018-03-01T08:47:40.865Z,12.73
2018-03-01T08:50:12.992Z,12.98
2018-03-01T08:52:44.224Z,13.57
2018-03-01T08:55:15.473Z,12.25
2018-03-01T08:57:46.758Z,12.20
2018-03-01T09:00:18.112Z,11.98
2018-03-01T09:02:49.409Z,12.25
2018-03-01T09:05:20.643Z,10.98
2018-03-01T09:07:51.946Z,11.40
2018-03-01T09:10:23.206Z,11.00
2018-03-01T09:12:54.730Z,12.70
2018-03-01T09:15:27.634Z,10.93
2018-03-01T09:18:00.234Z,12.25
2018-03-01T09:20:32.073Z,10.77
2018-03-01T09:23:07.709Z,12.73
2018-03-01T09:25:42.325Z,12.18
2018-03-01T09:28:15.143Z,11.35
2018-03-01T09:30:46.742Z,13.27
2018-03-01T09:33:17.932Z,10.30
2018-03-01T09:35:49.973Z,11.98
2018-03-01T09:38:21.334Z,10.98
2018-03-01T09:40:52.739Z,11.12
2018-03-01T09:43:23.949Z,12.43
2018-03-01T09:45:55.194Z,13.07
2018-03-01T09:48:26.430Z,11.38
2018-03-01T09:50:58.592Z,11.75
2018-03-01T09:53:30.069Z,11.32
2018-03-01T09:56:01.331Z,12.65
2018-03-01T09:58:32.692Z,10.30
2018-03-01T10:01:04.019Z,11.85
2018-03-01T10:03:35.463Z,10.77
2018-03-01T10:06:06.666Z,10.85
2018-03-01T10:08:37.914Z,14.68
2018-03-01T10:11:09.916Z,13.40
2018-03-01T10:13:41.219Z,14.77
2018-03-01T10:16:12.448Z,14.02
2018-03-01T10:18:45.530Z,14.45
2018-03-01T10:21:18.650Z,13.98
2018-03-01T10:23:50.611Z,12.77
2018-03-01T10:26:22.854Z,11.73
2018-03-01T10:28:54.941Z,11.27
2018-03-01T10:31:26.877Z,12.90
2018-03-01T10:33:59.079Z,12.07
2018-03-01T10:36:33.597Z,11.85
2018-03-01T10:39:04.961Z,11.50
2018-03-01T10:41:36.290Z,11.75
2018-03-01T10:44:08.280Z,10.85
2018-03-01T10:46:39.566Z,12.25
2018-03-01T10:49:11.104Z,15.27
2018-03-01T10:51:42.338Z,12.60
2018-03-01T10:54:13.618Z,12.32
2018-03-01T10:56:44.968Z,12.68
2018-03-01T10:59:17.060Z,11.40
2018-03-01T11:01:51.941Z,10.48
2018-03-01T11:04:23.284Z,11.68
2018-03-01T11:06:54.541Z,11.20
2018-03-01T11:09:25.830Z,12.15
2018-03-01T11:11:57.049Z,11.35
2018-03-01T11:14:28.768Z,10.60
2018-03-01T11:17:00.326Z,9.98
2018-03-01T11:19:31.664Z,10.88
2018-03-01T11:22:03.240Z,11.25
2018-03-01T11:24:34.461Z,11.10
2018-03-01T11:27:05.731Z,10.27
2018-03-01T11:29:36.948Z,10.75
2018-03-01T11:32:08.317Z,11.57
2018-03-01T11:34:39.522Z,10.40
2018-03-01T11:37:10.768Z,10.07
2018-03-01T11:39:42.020Z,10.80
2018-03-01T11:42:13.253Z,10.70
2018-03-01T11:44:44.522Z,11.77
2018-03-01T11:47:15.772Z,10.43
2018-03-01T11:49:47.318Z,10.95
2018-03-01T11:52:18.565Z,12.07
2018-03-01T11:54:49.772Z,9.75
2018-03-01T11:57:21.093Z,11.00
2018-03-01T11:59:53.418Z,9.95
2018-03-01T12:02:24.892Z,10.63
2018-03-01T12:04:56.187Z,8.40
2018-03-01T12:07:27.397Z,10.27
2018-03-01T12:09:59.394Z,10.05
2018-03-01T12:12:30.678Z,9.77
2018-03-01T12:15:03.421Z,10.18
2018-03-01T12:17:34.669Z,10.45
2018-03-01T12:20:05.899Z,10.30
2018-03-01T12:22:37.288Z,9.63
2018-03-01T12:25:08.475Z,9.57
2018-03-01T12:27:39.748Z,10.02
2018-03-01T12:30:11.028Z,11.25
2018-03-01T12:32:42.268Z,9.80
2018-03-01T12:35:13.488Z,10.20
2018-03-01T12:37:44.861Z,10.43
2018-03-01T12:40:16.075Z,10.45
2018-03-01T12:42:47.398Z,9.77
2018-03-01T12:45:18.640Z,10.88
2018-03-01T12:47:49.911Z,11.43
2018-03-01T12:50:21.135Z,10.82
2018-03-01T12:52:52.376Z,9.95
2018-03-01T12:55:24.374Z,9.98
2018-03-01T12:57:55.761Z,11.27
2018-03-01T13:00:27.061Z,11.07
2018-03-01T13:02:58.627Z,10.70
2018-03-01T13:05:29.810Z,10.55
2018-03-01T13:08:01.623Z,10.23
2018-03-01T13:10:34.790Z,10.48
2018-03-01T13:13:06.619Z,11.05
2018-03-01T13:15:38.640Z,11.68
2018-03-01T13:18:09.944Z,10.65
2018-03-01T13:20:41.161Z,10.95
2018-03-01T13:23:12.771Z,11.05
2018-03-01T13:25:43.971Z,10.88
2018-03-01T13:28:15.945Z,13.02
2018-03-01T13:30:47.177Z,11.35
2018-03-01T13:33:19.380Z,11.07
2018-03-01T13:35:53.494Z,11.27
2018-03-01T13:38:24.735Z,11.55
2018-03-01T13:40:55.951Z,10.05
2018-03-01T13:43:29.296Z,11.15
2018-03-01T13:46:00.583Z,11.40
2018-03-01T13:48:32.643Z,11.50
2018-03-01T13:51:04.653Z,11.18
2018-03-01T13:53:35.864Z,11.93
2018-03-01T13:56:07.168Z,11.23
2018-03-01T13:58:38.376Z,13.02
2018-03-01T14:01:09.643Z,13.10
2018-03-01T14:03:40.930Z,11.65
2018-03-01T14:06:14.821Z,12.30
2018-03-01T14:08:46.084Z,11.60
2018-03-01T14:11:18.160Z,13.62
2018-03-01T14:13:49.468Z,11.90
2018-03-01T14:16:20.648Z,12.70
2018-03-01T14:19:03.437Z,13.85
2018-03-01T14:21:40.900Z,13.25
2018-03-01T14:24:13.951Z,12.40
2018-03-01T14:26:49.228Z,12.93
2018-03-01T14:29:26.848Z,13.15
2018-03-01T14:31:58.088Z,11.23
2018-03-01T14:34:29.358Z,11.20
2018-03-01T14:37:00.615Z,12.88
2018-03-01T14:39:31.828Z,12.95
2018-03-01T14:42:03.150Z,11.30
2018-03-01T14:44:34.359Z,12.02
2018-03-01T14:47:05.609Z,12.98
2018-03-01T14:49:36.874Z,13.05
2018-03-01T14:52:08.912Z,13.50
2018-03-01T14:54:40.126Z,11.48
2018-03-01T14:57:12.085Z,12.80
2018-03-01T14:59:44.019Z,12.10
2018-03-01T15:02:15.444Z,11.77
2018-03-01T15:04:47.278Z,13.57
2018-03-01T15:07:19.188Z,11.80
2018-03-01T15:09:50.440Z,12.82
2018-03-01T15:12:21.705Z,11.73
2018-03-01T15:14:53.056Z,12.18
2018-03-01T15:17:25.076Z,11.43
2018-03-01T15:19:56.335Z,12.43
2018-03-01T15:22:28.297Z,13.95
2018-03-01T15:25:00.607Z,11.80
2018-03-01T15:27:31.915Z,12.73
2018-03-01T15:30:03.137Z,12.40
2018-03-01T15:32:34.417Z,12.45
2018-03-01T15:35:06.382Z,12.73
2018-03-01T15:37:38.413Z,12.10
2018-03-01T15:40:09.655Z,11.63
2018-03-01T15:42:40.864Z,12.57
2018-03-01T15:45:12.991Z,13.27
2018-03-01T15:47:45.031Z,11.80
2018-03-01T15:50:16.321Z,10.98
2018-03-01T15:52:47.554Z,12.25
2018-03-01T15:55:18.790Z,12.20
2018-03-01T15:57:50.788Z,11.75
2018-03-01T16:00:22.115Z,13.30
2018-03-01T16:02:53.429Z,12.63
2018-03-01T16:05:25.386Z,11.93
2018-03-01T16:07:56.741Z,12.15
2018-03-01T16:10:27.990Z,12.45
2018-03-01T16:12:59.313Z,12.23
2018-03-01T16:15:30.560Z,11.48
2018-03-01T16:18:01.817Z,12.07
2018-03-01T16:20:33.029Z,11.60
2018-03-01T16:23:04.216Z,11.88
2018-03-01T16:25:36.286Z,11.77
2018-03-01T16:28:08.228Z,11.88
2018-03-01T16:30:39.540Z,12.15
2018-03-01T16:33:10.731Z,15.57
2018-03-01T16:35:42.889Z,13.60
2018-03-01T16:38:14.227Z,12.18
2018-03-01T16:40:45.420Z,12.32
2018-03-01T16:43:16.641Z,12.85
2018-03-01T16:45:48.825Z,15.93
2018-03-01T16:48:20.047Z,15.35
2018-03-01T16:50:51.625Z,14.75
2018-03-01T16:53:22.849Z,16.12
2018-03-01T16:55:54.815Z,15.35
2018-03-01T16:58:26.044Z,15.00
2018-03-01T17:00:57.289Z,15.30
2018-03-01T17:03:28.612Z,14.98
2018-03-01T17:05:59.934Z,14.50
2018-03-01T17:08:31.255Z,12.23
2018-03-01T17:11:02.501Z,13.77
2018-03-01T17:13:33.733Z,14.65
2018-03-01T17:16:04.973Z,14.18
2018-03-01T17:18:36.284Z,13.62
2018-03-01T17:21:07.528Z,14.80
2018-03-01T17:23:38.783Z,13.57
2018-03-01T17:26:10.381Z,13.40
2018-03-01T17:28:41.579Z,13.45
2018-03-01T17:31:12.821Z,13.65
2018-03-01T17:33:44.072Z,13.55
2018-03-01T17:36:15.311Z,15.05
2018-03-01T17:38:46.499Z,17.73
2018-03-01T17:41:17.834Z,13.93
2018-03-01T17:43:49.767Z,13.90
2018-03-01T17:46:21.113Z,14.68
2018-03-01T17:48:52.331Z,15.55
2018-03-01T17:51:23.751Z,16.55
2018-03-01T17:53:54.957Z,15.73
2018-03-01T17:56:26.242Z,15.48
2018-03-01T17:58:57.480Z,15.05
2018-03-01T18:01:28.713Z,13.65
2018-03-01T18:03:59.943Z,15.70
2018-03-01T18:06:31.976Z,14.15
2018-03-01T18:09:03.491Z,15.85
2018-03-01T18:11:34.699Z,15.48
2018-03-01T18:14:06.014Z,14.80
2018-03-01T18:16:37.223Z,14.98
2018-03-01T18:19:08.598Z,15.77
2018-03-01T18:21:39.839Z,14.27
2018-03-01T18:24:11.108Z,15.50
2018-03-01T18:26:43.160Z,15.25
2018-03-01T18:29:14.404Z,14.68
2018-03-01T18:31:45.631Z,14.38
2018-03-01T18:34:16.903Z,16.20
2018-03-01T18:36:48.121Z,14.85
2018-03-01T18:39:19.352Z,16.23
2018-03-01T18:41:50.570Z,16.83
2018-03-01T18:44:22.548Z,16.17
2018-03-01T18:46:53.818Z,15.75
2018-03-01T18:49:25.086Z,15.90
2018-03-01T18:51:56.281Z,17.17
2018-03-01T18:54:28.244Z,15.98
2018-03-01T18:56:59.719Z,17.70
2018-03-01T18:59:30.923Z,15.05
2018-03-01T19:02:02.862Z,16.60
2018-03-01T19:04:34.084Z,17.37
2018-03-01T19:07:05.424Z,17.10
2018-03-01T19:09:36.655Z,16.75
2018-03-01T19:12:07.910Z,16.12
2018-03-01T19:14:39.130Z,17.65
2018-03-01T19:17:10.388Z,17.62
2018-03-01T19:19:41.580Z,17.42
2018-03-01T19:22:13.539Z,17.52
2018-03-01T19:24:45.459Z,16.05
2018-03-01T19:27:16.993Z,17.05
2018-03-01T19:29:48.172Z,15.75
2018-03-01T19:32:19.419Z,17.15
2018-03-01T19:34:50.633Z,15.68
2018-03-01T19:37:22.171Z,16.73
2018-03-01T19:39:53.420Z,16.58
2018-03-01T19:42:24.703Z,15.50
2018-03-01T19:44:55.907Z,16.25
2018-03-01T19:47:27.210Z,16.02
2018-03-01T19:49:59.640Z,17.40
2018-03-01T19:52:30.878Z,16.33
2018-03-01T19:55:02.092Z,15.43
2018-03-01T19:57:33.577Z,16.35
2018-03-01T20:00:04.810Z,16.17
2018-03-01T20:02:36.028Z,15.63
2018-03-01T20:05:07.220Z,17.55
2018-03-01T20:07:38.448Z,15.52
2018-03-01T20:10:09.630Z,17.60
2018-03-01T20:12:41.141Z,16.67
2018-03-01T20:15:12.316Z,16.35
2018-03-01T20:17:43.545Z,17.48
2018-03-01T20:20:14.729Z,18.30
2018-03-01T20:22:45.965Z,17.35
2018-03-01T20:25:17.884Z,16.25
2018-03-01T20:27:49.594Z,17.85
2018-03-01T20:30:21.086Z,17.20
2018-03-01T20:32:52.682Z,17.77
2018-03-01T20:35:23.960Z,17.85
2018-03-01T20:37:55.174Z,16.92
2018-03-01T20:40:26.785Z,17.27
2018-03-01T20:42:58.207Z,18.12
2018-03-01T20:45:29.427Z,17.17
2018-03-01T20:48:00.724Z,17.40
2018-03-01T20:50:32.035Z,17.83
2018-03-01T20:53:03.392Z,17.77
2018-03-01T20:55:34.590Z,19.25
2018-03-01T20:58:06.084Z,17.37
2018-03-01T21:00:37.338Z,18.73
2018-03-01T21:03:08.559Z,18.80
2018-03-01T21:05:39.851Z,18.70
2018-03-01T21:08:11.141Z,19.83
2018-03-01T21:10:43.280Z,18.05
2018-03-01T21:13:14.551Z,17.30
2018-03-01T21:15:45.774Z,19.02
2018-03-01T21:18:17.060Z,17.62
2018-03-01T21:20:48.287Z,19.55
2018-03-01T21:23:20.232Z,17.42
2018-03-01T21:25:51.415Z,18.77
2018-03-01T21:28:22.696Z,19.52
2018-03-01T21:30:54.220Z,18.95
2018-03-01T21:33:25.411Z,19.33
2018-03-01T21:35:56.648Z,17.50
2018-03-01T21:38:27.884Z,19.10
2018-03-01T21:40:59.091Z,17.37
2018-03-01T21:43:30.321Z,18.80
2018-03-01T21:46:01.522Z,19.05
2018-03-01T21:48:32.837Z,17.58
2018-03-01T21:51:04.013Z,18.85
2018-03-01T21:53:35.250Z,21.33
2018-03-01T21:56:06.448Z,20.15
2018-03-01T21:58:37.706Z,17.85
2018-03-01T22:01:09.009Z,19.95
2018-03-01T22:03:40.981Z,18.67
2018-03-01T22:06:12.200Z,19.92
2018-03-01T22:08:43.517Z,20.10
2018-03-01T22:11:14.708Z,20.23
2018-03-01T22:13:46.692Z,20.23
2018-03-01T22:16:17.935Z,19.87
2018-03-01T22:18:49.151Z,20.95
2018-03-01T22:21:21.060Z,18.70
2018-03-01T22:23:52.303Z,19.70
2018-03-01T22:26:23.502Z,19.80
2018-03-01T22:28:55.941Z,21.70
2018-03-01T22:31:27.143Z,18.55
2018-03-01T22:33:58.352Z,19.98
2018-03-01T22:36:30.451Z,19.45
2018-03-01T22:39:01.803Z,19.67
2018-03-01T22:41:33.788Z,19.08
2018-03-01T22:44:04.960Z,17.80
2018-03-01T22:46:37.306Z,19.23
2018-03-01T22:49:08.531Z,20.17
2018-03-01T22:51:39.740Z,19.55
2018-03-01T22:54:11.705Z,18.52
2018-03-01T22:56:43.715Z,20.52
2018-03-01T22:59:15.043Z,18.70
2018-03-01T23:01:46.490Z,19.67
2018-03-01T23:04:17.646Z,19.73
2018-03-01T23:06:49.187Z,19.90
2018-03-01T23:09:20.428Z,18.58
2018-03-01T23:11:51.611Z,19.70
2018-03-01T23:14:22.833Z,19.85
2018-03-01T23:16:54.051Z,20.62
2018-03-01T23:19:25.242Z,21.20
2018-03-01T23:21:56.464Z,20.08
2018-03-01T23:24:27.643Z,20.80
2018-03-01T23:26:58.876Z,19.27
2018-03-01T23:29:30.132Z,19.00
2018-03-01T23:32:01.368Z,19.83
2018-03-01T23:34:32.596Z,19.25
2018-03-01T23:37:03.780Z,20.33
2018-03-01T23:39:35.021Z,18.85
2018-03-01T23:42:07.015Z,18.37
2018-03-01T23:44:38.219Z,20.75
2018-03-01T23:47:09.426Z,17.25
2018-03-01T23:49:40.679Z,18.70
2018-03-01T23:52:11.887Z,20.40
2018-03-01T23:54:43.107Z,19.20
2018-03-01T23:57:14.333Z,18.37
2018-03-01T23:59:46.283Z,19.75
